In Rescue
 
Open Full Screen Window  High Contrast Mode
Wind Gusting 00 knots
03
November 25, 2020 6:34 AM EST
Present Weather: Unknown Precipitation
Weather Information
Wind Direction
  070 °
Wind Speed
  03 kt (3 mph)
Wind Gust
  00 kt (0 mph)
Altimeter
29.87 in
Visibility
2 SM
Temperature
01° C
34° F
Dewpoint
00° C
32° F
Humidity
93%
Sky Condition
Overcast @ 400 ft
LIFR

METAR KCAD 251134Z AUTO 07003KT 2SM UP OVC004 01/00 A2987 RMK AO2 T00050002

FAA Disclaimer: The data displayed is for advisory purposes only and is not to be used for flight planning or operations.